SOHO CELIAS Proton Monitor
Solar Wind Parameters for Carrington Rotation 2146 (hour averages)


Listed Parameters:

Measurement time (Year, Month, Day of Month, Day of Year, Hour, Minute, Second)
Proton speed [km/sec]
Proton density [protons per cubic centimeter]
Most probable proton thermal speed [km/sec]
Arrival direction [degrees from north-south, with + meaning FROM the south).
(SPEED=-1 means NOT AVAILABLE)

SOHO spacecraft coordinates: based on SOHO PRE orbit files
GSE X, Y, Z [Earth Radii] 1 RE == 6378 km
Heliocentric Range [106 km],
Heliographic Latitude and Longitude [deg].

FORMAT=(1X,I2,1X,I3,1X,I2,1X,I2,1X,I2,F7.1,3F7.2,3X,3F7.1,F7.1,F7.2,F8.2)



                              CELIAS/MTOF/PM DATA                      SOHO ORBIT DATA              
 InSitu_Start__Time       [km/s]  [cm-3] [km/s]  [deg]      [Re]   [Re]   [Re]  [Mkm]  [deg]  [deg]
 YY MON DY DOY:HH:MM:SS   SPEED     Np     Vth    N/S      GSE_X  GSE_Y  GSE_Z  RANGE  HGLAT  HGLONG
 14 JAN 15  15:09:00:00     457    1.1      28   -0.1      243.3  -73.2  -14.8  145.6   -4.6   360.0
 14 JAN 15  15:10:00:00     465    1.0      34    0.7      243.3  -73.4  -14.8  145.6   -4.6   359.8
 14 JAN 15  15:11:00:00     462    0.7      37   -0.1      243.2  -73.5  -14.7  145.6   -4.6   359.2
 14 JAN 15  15:12:00:00     456    0.8      38   -0.1      243.2  -73.6  -14.7  145.6   -4.6   358.6
 14 JAN 15  15:13:00:00     456    0.7      40   -0.4      243.1  -73.7  -14.7  145.6   -4.6   358.1
 14 JAN 15  15:14:00:00     458    0.8      37   -1.5      243.1  -73.8  -14.7  145.6   -4.6   357.5
 14 JAN 15  15:15:00:00     454    0.7      42   -0.7      243.0  -73.9  -14.7  145.6   -4.6   357.0
 14 JAN 15  15:16:00:00     447    0.7      43   -0.6      243.0  -74.0  -14.7  145.6   -4.6   356.4
 14 JAN 15  15:17:00:00     468    0.6      44   -0.7      243.0  -74.1  -14.6  145.6   -4.6   355.9
 14 JAN 15  15:18:00:00     462    1.0      38    0.3      242.9  -74.3  -14.6  145.6   -4.6   355.3
 14 JAN 15  15:19:00:00     460    0.9      39    0.3      242.9  -74.4  -14.6  145.6   -4.7   354.8
 14 JAN 15  15:20:00:00     466    0.7      44   -0.4      242.8  -74.5  -14.6  145.6   -4.7   354.3
 14 JAN 15  15:21:00:00     389    2.0      32   -0.7      242.8  -74.6  -14.6  145.6   -4.7   353.7
 14 JAN 15  15:22:00:00     387    1.8      32    0.6      242.7  -74.7  -14.6  145.6   -4.7   353.2
 14 JAN 15  15:23:00:00     383    1.9      31    1.1      242.7  -74.8  -14.5  145.6   -4.7   352.6
 14 JAN 16  16:00:00:00     382    1.7      31    1.4      242.6  -74.9  -14.5  145.6   -4.7   352.1
 14 JAN 16  16:01:00:00     387    1.5      33    1.1      242.6  -75.0  -14.5  145.6   -4.7   351.5
 14 JAN 16  16:02:00:00     371    2.6      25    0.0      242.5  -75.1  -14.5  145.6   -4.7   350.9
 14 JAN 16  16:03:00:00     380    2.0      30    0.7      242.5  -75.2  -14.5  145.6   -4.7   350.4
 14 JAN 16  16:04:00:00     384    2.1      31   -0.8      242.4  -75.4  -14.5  145.6   -4.7   349.8
 14 JAN 16  16:05:00:00     380    2.9      29   -0.7      242.4  -75.5  -14.4  145.6   -4.7   349.3
 14 JAN 16  16:06:00:00     385    2.7      33    1.1      242.3  -75.6  -14.4  145.6   -4.7   348.8
 14 JAN 16  16:07:00:00     370    3.9      25   -0.4      242.3  -75.7  -14.4  145.6   -4.7   348.2
 14 JAN 16  16:08:00:00     370    4.0      25   -0.6      242.3  -75.8  -14.4  145.6   -4.7   347.7
 14 JAN 16  16:09:00:00     368    3.8      24    0.2      242.2  -75.9  -14.4  145.6   -4.8   347.1
 14 JAN 16  16:10:00:00     365    3.9      24    0.4      242.2  -76.0  -14.4  145.6   -4.8   346.6
 14 JAN 16  16:11:00:00     369    3.1      24    0.4      242.1  -76.1  -14.3  145.6   -4.8   346.0
 14 JAN 16  16:12:00:00     364    3.7      23   -0.3      242.1  -76.2  -14.3  145.6   -4.8   345.5
 14 JAN 16  16:13:00:00     359    3.5      22   -0.3      242.0  -76.3  -14.3  145.6   -4.8   344.9
 14 JAN 16  16:14:00:00     359    3.4      22    0.5      242.0  -76.4  -14.3  145.6   -4.8   344.4
 14 JAN 16  16:15:00:00     365    3.1      24    0.5      241.9  -76.5  -14.3  145.6   -4.8   343.8
 14 JAN 16  16:16:00:00     367    3.1      25   -0.3      241.9  -76.7  -14.3  145.6   -4.8   343.3
 14 JAN 16  16:17:00:00     363    3.4      23   -0.6      241.8  -76.8  -14.2  145.6   -4.8   342.7
 14 JAN 16  16:18:00:00     359    2.7      27   -1.0      241.8  -76.9  -14.2  145.6   -4.8   342.2
 14 JAN 16  16:19:00:00     362    3.0      24    0.1      241.7  -77.0  -14.2  145.6   -4.8   341.7
 14 JAN 16  16:20:00:00     356    2.5      25   -0.1      241.7  -77.1  -14.2  145.6   -4.8   341.1
 14 JAN 16  16:21:00:00     361    2.7      25    0.6      241.6  -77.2  -14.2  145.6   -4.8   340.6
 14 JAN 16  16:22:00:00     362    2.7      24    0.7      241.6  -77.3  -14.2  145.6   -4.8   340.0
 14 JAN 16  16:23:00:00     363    2.3      25    0.2      241.5  -77.4  -14.1  145.6   -4.8   339.4
 14 JAN 17  17:00:00:00     355    2.9      23    0.5      241.5  -77.5  -14.1  145.6   -4.8   338.9
 14 JAN 17  17:01:00:00     355    3.3      22    0.6      241.5  -77.6  -14.1  145.6   -4.8   338.3
 14 JAN 17  17:02:00:00     362    2.5      25    0.3      241.4  -77.7  -14.1  145.6   -4.8   337.8
 14 JAN 17  17:03:00:00     350    1.7      29    0.1      241.4  -77.8  -14.1  145.6   -4.8   337.2
 14 JAN 17  17:04:00:00     369    1.1      34    0.2      241.3  -77.9  -14.0  145.6   -4.8   336.7
 14 JAN 17  17:05:00:00     368    1.4      34    1.5      241.3  -78.0  -14.0  145.6   -4.8   336.2
 14 JAN 17  17:06:00:00     370    1.6      31    1.4      241.2  -78.1  -14.0  145.6   -4.8   335.6
 14 JAN 17  17:07:00:00     355    2.3      24    0.7      241.2  -78.2  -14.0  145.6   -4.8   335.1
 14 JAN 17  17:08:00:00     357    2.6      25    0.8      241.1  -78.3  -14.0  145.6   -4.8   334.5
 14 JAN 17  17:09:00:00     355    2.4      25    0.3      241.1  -78.5  -14.0  145.6   -4.8   334.0
 14 JAN 17  17:10:00:00     357    2.1      27   -0.3      241.0  -78.6  -13.9  145.6   -4.8   333.4
 14 JAN 17  17:11:00:00     365    1.6      29   -0.4      241.0  -78.7  -13.9  145.6   -4.8   332.9
 14 JAN 17  17:12:00:00     362    1.6      33   -0.3      240.9  -78.8  -13.9  145.6   -4.8   332.3
 14 JAN 17  17:13:00:00     359    1.9      32   -2.0      240.9  -78.9  -13.9  145.6   -4.8   331.7
 14 JAN 17  17:14:00:00     358    2.6      32   -1.9      240.8  -79.0  -13.9  145.6   -4.9   331.2
 14 JAN 17  17:15:00:00     359    2.9      30   -1.2      240.8  -79.1  -13.9  145.6   -4.9   330.7
 14 JAN 17  17:16:00:00     356    3.2      27   -0.2      240.8  -79.2  -13.8  145.6   -4.9   330.1
 14 JAN 17  17:17:00:00     354    2.6      28   -0.2      240.7  -79.3  -13.8  145.6   -4.9   329.6
 14 JAN 17  17:18:00:00     351    2.1      29   -1.5      240.7  -79.4  -13.8  145.6   -4.9   329.0
 14 JAN 17  17:19:00:00     347    2.2      28   -2.2      240.6  -79.5  -13.8  145.6   -4.9   328.5
 14 JAN 17  17:20:00:00     340    1.8      27   -2.5      240.6  -79.6  -13.8  145.6   -4.9   327.9
 14 JAN 17  17:21:00:00     315    2.5      22    0.3      240.5  -79.7  -13.7  145.6   -4.9   327.4
 14 JAN 17  17:22:00:00     313    2.6      22    1.0      240.5  -79.8  -13.7  145.6   -4.9   326.8
 14 JAN 17  17:23:00:00     318    3.2      22   -0.7      240.4  -79.9  -13.7  145.6   -4.9   326.3
 14 JAN 18  18:00:00:00     303    3.0      19    0.8      240.4  -80.0  -13.7  145.6   -4.9   325.7
 14 JAN 18  18:01:00:00     304    2.4      21    1.6      240.3  -80.1  -13.7  145.6   -4.9   325.2
 14 JAN 18  18:02:00:00     312    1.6      23    1.8      240.3  -80.2  -13.7  145.6   -4.9   324.6
 14 JAN 18  18:03:00:00     297    2.6      19    1.6      240.2  -80.3  -13.6  145.6   -4.9   324.1
 14 JAN 18  18:04:00:00     288    3.4      18    1.5      240.2  -80.4  -13.6  145.6   -4.9   323.5
 14 JAN 18  18:05:00:00     289    3.2      18    1.5      240.1  -80.5  -13.6  145.6   -4.9   323.0
 14 JAN 18  18:06:00:00     288    3.7      18    1.4      240.1  -80.6  -13.6  145.6   -4.9   322.5
 14 JAN 18  18:07:00:00     283    4.7      17    1.5      240.1  -80.7  -13.6  145.6   -4.9   321.9
 14 JAN 18  18:08:00:00     282    4.8      16    1.8      240.0  -80.8  -13.6  145.6   -4.9   321.4
 14 JAN 18  18:09:00:00     280    5.2      16    1.6      240.0  -80.9  -13.5  145.6   -4.9   320.8
 14 JAN 18  18:10:00:00     282    5.5      16    1.5      239.9  -81.0  -13.5  145.7   -4.9   320.2
 14 JAN 18  18:11:00:00     284    5.3      17    1.4      239.9  -81.1  -13.5  145.7   -4.9   319.7
 14 JAN 18  18:12:00:00     280    5.7      16    1.6      239.8  -81.2  -13.5  145.7   -4.9   319.1
 14 JAN 18  18:13:00:00     278    5.8      16    1.5      239.8  -81.3  -13.5  145.7   -4.9   318.6
 14 JAN 18  18:14:00:00     279    5.6      16    1.5      239.7  -81.4  -13.4  145.7   -4.9   318.0
 14 JAN 18  18:15:00:00     278    5.5      16    1.5      239.7  -81.5  -13.4  145.7   -4.9   317.5
 14 JAN 18  18:16:00:00     279    5.6      16    1.4      239.6  -81.6  -13.4  145.7   -4.9   317.0
 14 JAN 18  18:17:00:00     287    4.7      17    0.9      239.6  -81.7  -13.4  145.7   -4.9   316.4
 14 JAN 18  18:18:00:00     290    3.6      19    0.7      239.5  -81.8  -13.4  145.7   -4.9   315.9
 14 JAN 18  18:19:00:00     303    4.9      20    0.2      239.5  -81.9  -13.3  145.7   -5.0   315.3
 14 JAN 18  18:20:00:00     306    4.4      20   -0.1      239.4  -82.0  -13.3  145.7   -5.0   314.8
 14 JAN 18  18:21:00:00     299    5.2      19   -0.2      239.4  -82.1  -13.3  145.7   -5.0   314.2
 14 JAN 18  18:22:00:00     299    6.2      19   -0.6      239.4  -82.2  -13.3  145.7   -5.0   313.7
 14 JAN 18  18:23:00:00     306    6.2      20   -0.7      239.3  -82.3  -13.3  145.7   -5.0   313.1
 14 JAN 19  19:00:00:00     300    7.1      19   -0.8      239.3  -82.4  -13.3  145.7   -5.0   312.5
 14 JAN 19  19:01:00:00     298    9.3      19   -1.9      239.2  -82.5  -13.2  145.7   -5.0   312.0
 14 JAN 19  19:02:00:00     290    8.0      18   -1.2      239.2  -82.6  -13.2  145.7   -5.0   311.5
 14 JAN 19  19:03:00:00     287    7.6      17   -1.0      239.1  -82.7  -13.2  145.7   -5.0   310.9
 14 JAN 19  19:04:00:00     286    5.5      17   -0.5      239.1  -82.8  -13.2  145.7   -5.0   310.4
 14 JAN 19  19:05:00:00     286    5.3      17   -0.3      239.0  -82.9  -13.2  145.7   -5.0   309.9
 14 JAN 19  19:06:00:00     284    5.5      17   -0.1      239.0  -83.0  -13.1  145.7   -5.0   309.3
 14 JAN 19  19:07:00:00     282    6.3      17   -0.1      238.9  -83.1  -13.1  145.7   -5.0   308.7
 14 JAN 19  19:08:00:00     283    5.6      17    0.0      238.9  -83.1  -13.1  145.7   -5.0   308.2
 14 JAN 19  19:09:00:00     284    5.8      17   -0.5      238.8  -83.2  -13.1  145.7   -5.0   307.6
 14 JAN 19  19:10:00:00     286    4.2      17    0.4      238.8  -83.3  -13.1  145.7   -5.0   307.1
 14 JAN 19  19:11:00:00     285    4.2      17    0.2      238.7  -83.4  -13.0  145.7   -5.0   306.5
 14 JAN 19  19:12:00:00     287    3.8      18    0.2      238.7  -83.5  -13.0  145.7   -5.0   306.0
 14 JAN 19  19:13:00:00     289    3.1      18    0.0      238.7  -83.6  -13.0  145.7   -5.0   305.4
 14 JAN 19  19:14:00:00     291    2.8      19   -0.3      238.6  -83.7  -13.0  145.7   -5.0   304.9
 14 JAN 19  19:15:00:00     291    2.9      19   -1.0      238.6  -83.8  -13.0  145.7   -5.0   304.4
 14 JAN 19  19:16:00:00     292    2.3      19   -0.5      238.5  -83.9  -13.0  145.7   -5.0   303.8
 14 JAN 19  19:17:00:00     292    1.8      19    0.0      238.5  -84.0  -12.9  145.7   -5.0   303.3
 14 JAN 19  19:18:00:00     293    1.7      18    0.6      238.4  -84.1  -12.9  145.7   -5.0   302.7
 14 JAN 19  19:19:00:00     288    2.0      18    0.9      238.4  -84.2  -12.9  145.7   -5.0   302.2
 14 JAN 19  19:20:00:00     289    2.0      18    0.5      238.3  -84.3  -12.9  145.7   -5.0   301.6
 14 JAN 19  19:21:00:00     288    2.9      17    0.3      238.3  -84.4  -12.9  145.7   -5.0   301.0
 14 JAN 19  19:22:00:00     289    3.1      18   -0.2      238.2  -84.5  -12.8  145.7   -5.0   300.5
 14 JAN 19  19:23:00:00     288    3.3      17   -0.9      238.2  -84.6  -12.8  145.7   -5.0   299.9
 14 JAN 20  20:00:00:00     288    3.9      17   -0.9      238.1  -84.6  -12.8  145.7   -5.1   299.4
 14 JAN 20  20:01:00:00     291    3.3      19   -0.6      238.1  -84.7  -12.8  145.7   -5.1   298.9
 14 JAN 20  20:02:00:00     293    3.3      19    0.3      238.1  -84.8  -12.8  145.7   -5.1   298.3
 14 JAN 20  20:03:00:00     298    3.4      19    0.5      238.0  -84.9  -12.7  145.7   -5.1   297.8
 14 JAN 20  20:04:00:00     296    4.5      19    3.4      238.0  -85.0  -12.7  145.7   -5.1   297.2
 14 JAN 20  20:05:00:00     304    5.3      19    3.8      237.9  -85.1  -12.7  145.7   -5.1   296.7
 14 JAN 20  20:06:00:00     299    7.1      19    4.5      237.9  -85.2  -12.7  145.7   -5.1   296.1
 14 JAN 20  20:07:00:00     298    6.5      19    3.9      237.8  -85.3  -12.7  145.7   -5.1   295.6
 14 JAN 20  20:08:00:00     294    5.1      19    2.7      237.8  -85.4  -12.6  145.7   -5.1   295.0
 14 JAN 20  20:09:00:00     290    4.2      18    1.9      237.7  -85.5  -12.6  145.7   -5.1   294.5
 14 JAN 20  20:10:00:00     293    4.0      19    2.0      237.7  -85.6  -12.6  145.7   -5.1   293.9
 14 JAN 20  20:11:00:00     295    3.8      19    1.6      237.6  -85.6  -12.6  145.7   -5.1   293.4
 14 JAN 20  20:12:00:00     293    4.0      19    2.3      237.6  -85.7  -12.6  145.7   -5.1   292.8
 14 JAN 20  20:13:00:00     294    4.7      19    2.8      237.5  -85.8  -12.5  145.7   -5.1   292.3
 14 JAN 20  20:14:00:00     296    5.5      19    2.8      237.5  -85.9  -12.5  145.7   -5.1   291.8
 14 JAN 20  20:15:00:00     294    7.6      19    3.4      237.5  -86.0  -12.5  145.7   -5.2   291.2
 14 JAN 20  20:16:00:00     292    7.2      19    3.6      237.4  -86.1  -12.5  145.7   -5.2   290.7
 14 JAN 20  20:17:00:00     296    5.6      19    3.1      237.4  -86.2  -12.5  145.7   -5.2   290.1
 14 JAN 20  20:18:00:00     302    4.8      19    1.3      237.3  -86.3  -12.4  145.7   -5.2   289.5
 14 JAN 20  20:19:00:00     306    5.5      19    2.0      237.3  -86.4  -12.4  145.7   -5.2   289.0
 14 JAN 20  20:20:00:00     313    6.2      21    1.1      237.2  -86.4  -12.4  145.7   -5.2   288.4
 14 JAN 20  20:21:00:00     314    7.0      21    2.1      237.2  -86.5  -12.4  145.7   -5.2   287.9
 14 JAN 20  20:22:00:00     320   10.0      22    4.5      237.1  -86.6  -12.4  145.7   -5.2   287.3
 14 JAN 20  20:23:00:00     324   17.3      22    6.5      237.1  -86.7  -12.3  145.7   -5.2   286.8
 14 JAN 21  21:00:00:00     327   12.7      24    2.5      237.0  -86.8  -12.3  145.7   -5.2   286.2
 14 JAN 21  21:01:00:00     331   11.2      25    0.6      237.0  -86.9  -12.3  145.7   -5.2   285.7
 14 JAN 21  21:02:00:00     332   11.7      25    3.6      236.9  -87.0  -12.3  145.7   -5.2   285.2
 14 JAN 21  21:03:00:00     338    9.1      27    2.2      236.9  -87.0  -12.3  145.7   -5.2   284.6
 14 JAN 21  21:04:00:00     339   10.1      26    5.5      236.8  -87.1  -12.2  145.7   -5.2   284.1
 14 JAN 21  21:05:00:00     344   13.2      27    6.6      236.8  -87.2  -12.2  145.7   -5.2   283.5
 14 JAN 21  21:06:00:00     325    8.4      24    0.2      236.8  -87.3  -12.2  145.7   -5.2   283.0
 14 JAN 21  21:07:00:00     329    8.6      24   -0.2      236.7  -87.4  -12.2  145.7   -5.2   282.4
 14 JAN 21  21:08:00:00     325    8.6      23   -1.1      236.7  -87.5  -12.2  145.7   -5.2   281.8
 14 JAN 21  21:09:00:00     318    7.8      21   -0.4      236.6  -87.6  -12.1  145.7   -5.2   281.3
 14 JAN 21  21:10:00:00     310    8.3      20    0.7      236.6  -87.6  -12.1  145.7   -5.2   280.7
 14 JAN 21  21:11:00:00     303   10.3      19    1.4      236.5  -87.7  -12.1  145.7   -5.2   280.2
 14 JAN 21  21:12:00:00     308   11.2      19    2.3      236.5  -87.8  -12.1  145.7   -5.2   279.7
 14 JAN 21  21:13:00:00     318   12.0      20    3.5      236.4  -87.9  -12.1  145.7   -5.2   279.1
 14 JAN 21  21:14:00:00     330   14.9      23    3.5      236.4  -88.0  -12.0  145.7   -5.2   278.6
 14 JAN 21  21:15:00:00     324   15.7      22    2.7      236.3  -88.1  -12.0  145.7   -5.2   278.0
 14 JAN 21  21:16:00:00     328   15.3      23    4.2      236.3  -88.1  -12.0  145.7   -5.2   277.5
 14 JAN 21  21:17:00:00     337   11.7      26    2.5      236.2  -88.2  -12.0  145.7   -5.2   276.9
 14 JAN 21  21:18:00:00     348   11.0      30   -1.2      236.2  -88.3  -12.0  145.7   -5.2   276.4
 14 JAN 21  21:19:00:00     344   17.7      30   -1.4      236.2  -88.4  -11.9  145.7   -5.2   275.8
 14 JAN 21  21:20:00:00     354    9.0      36    1.3      236.1  -88.5  -11.9  145.7   -5.2   275.3
 14 JAN 21  21:21:00:00     417    4.1      50    1.1      236.1  -88.6  -11.9  145.7   -5.2   274.7
 14 JAN 21  21:22:00:00     424    4.3      46   -1.3      236.0  -88.6  -11.9  145.7   -5.3   274.2
 14 JAN 21  21:23:00:00     414    5.3      44   -1.6      236.0  -88.7  -11.9  145.7   -5.3   273.6
 14 JAN 22  22:00:00:00     432    5.9      47   -1.9      235.9  -88.8  -11.8  145.7   -5.3   273.1
 14 JAN 22  22:01:00:00     439    4.6      50   -1.0      235.9  -88.9  -11.8  145.7   -5.3   272.6
 14 JAN 22  22:02:00:00     443    5.3      50   -1.2      235.8  -89.0  -11.8  145.7   -5.3   272.0
 14 JAN 22  22:03:00:00     454    4.9      52   -2.2      235.8  -89.0  -11.8  145.7   -5.3   271.5
 14 JAN 22  22:04:00:00     463    3.6      52   -1.4      235.7  -89.1  -11.8  145.7   -5.3   270.9
 14 JAN 22  22:05:00:00     486    3.1      56   -2.2      235.7  -89.2  -11.7  145.7   -5.3   270.3
 14 JAN 22  22:06:00:00     511    2.6      68   -2.5      235.6  -89.3  -11.7  145.7   -5.3   269.8
 14 JAN 22  22:07:00:00     540    2.4      68   -3.4      235.6  -89.4  -11.7  145.7   -5.3   269.2
 14 JAN 22  22:08:00:00     526    2.4      65   -2.7      235.6  -89.4  -11.7  145.7   -5.3   268.7
 14 JAN 22  22:09:00:00     528    2.3      59   -1.0      235.5  -89.5  -11.7  145.7   -5.3   268.1
 14 JAN 22  22:10:00:00     544    2.5      55   -2.3      235.5  -89.6  -11.6  145.7   -5.3   267.6
 14 JAN 22  22:11:00:00     522    2.8      55   -2.8      235.4  -89.7  -11.6  145.7   -5.3   267.1
 14 JAN 22  22:12:00:00     517    3.1      55   -2.7      235.4  -89.8  -11.6  145.7   -5.3   266.5
 14 JAN 22  22:13:00:00     519    3.7      57   -5.3      235.3  -89.8  -11.6  145.7   -5.3   266.0
 14 JAN 22  22:14:00:00     475    3.5      53   -3.9      235.3  -89.9  -11.6  145.7   -5.3   265.4
 14 JAN 22  22:15:00:00     500    3.7      56   -4.0      235.2  -90.0  -11.5  145.7   -5.3   264.9
 14 JAN 22  22:16:00:00     489    4.1      51   -4.5      235.2  -90.1  -11.5  145.7   -5.3   264.3
 14 JAN 22  22:17:00:00     482    4.4      50   -4.7      235.1  -90.1  -11.5  145.7   -5.3   263.8
 14 JAN 22  22:18:00:00     485    3.8      55   -6.0      235.1  -90.2  -11.5  145.7   -5.3   263.2
 14 JAN 22  22:19:00:00     450    4.4      50   -4.1      235.0  -90.3  -11.4  145.7   -5.3   262.6
 14 JAN 22  22:20:00:00     470    4.6      51   -3.1      235.0  -90.4  -11.4  145.7   -5.3   262.1
 14 JAN 22  22:21:00:00     485    5.4      51   -4.9      235.0  -90.4  -11.4  145.7   -5.3   261.6
 14 JAN 22  22:22:00:00     459    5.9      46   -4.4      234.9  -90.5  -11.4  145.7   -5.3   261.0
 14 JAN 22  22:23:00:00     443    5.4      41   -2.1      234.9  -90.6  -11.4  145.7   -5.3   260.5
 14 JAN 23  23:00:00:00     433    5.4      40   -2.5      234.8  -90.7  -11.3  145.7   -5.3   260.0
 14 JAN 23  23:01:00:00     436    6.4      43   -4.4      234.8  -90.7  -11.3  145.7   -5.3   259.4
 14 JAN 23  23:02:00:00     444    6.6      42   -4.1      234.7  -90.8  -11.3  145.7   -5.3   258.8
 14 JAN 23  23:03:00:00     453    4.3      45   -2.2      234.7  -90.9  -11.3  145.7   -5.3   258.3
 14 JAN 23  23:04:00:00     426    4.9      41   -3.6      234.6  -91.0  -11.3  145.7   -5.3   257.7
 14 JAN 23  23:05:00:00     430    4.8      43   -2.0      234.6  -91.0  -11.2  145.8   -5.4   257.2
 14 JAN 23  23:06:00:00     434    5.0      47   -2.0      234.5  -91.1  -11.2  145.8   -5.4   256.6
 14 JAN 23  23:07:00:00      -1   -1.0      -1   99.0      234.5  -91.2  -11.2  145.8   -5.4   256.1
 14 JAN 23  23:08:00:00      -1   -1.0      -1   99.0      234.4  -91.3  -11.2  145.8   -5.4   255.5
 14 JAN 23  23:09:00:00     424    3.6      47   -2.3      234.4  -91.3  -11.2  145.8   -5.4   255.0
 14 JAN 23  23:10:00:00     422    4.7      42   -4.2      234.4  -91.4  -11.1  145.8   -5.4   254.5
 14 JAN 23  23:11:00:00     421    4.3      41   -4.1      234.3  -91.5  -11.1  145.8   -5.4   253.9
 14 JAN 23  23:12:00:00     426    4.5      39   -3.0      234.3  -91.6  -11.1  145.8   -5.4   253.4
 14 JAN 23  23:13:00:00     416    5.2      39   -6.1      234.2  -91.6  -11.1  145.8   -5.4   252.8
 14 JAN 23  23:14:00:00     404    4.5      39   -5.0      234.2  -91.7  -11.0  145.8   -5.4   252.3
 14 JAN 23  23:15:00:00     396    4.7      36   -5.0      234.1  -91.8  -11.0  145.8   -5.4   251.7
 14 JAN 23  23:16:00:00     392    5.0      34   -5.3      234.1  -91.8  -11.0  145.8   -5.4   251.1
 14 JAN 23  23:17:00:00     395    4.0      37   -2.2      234.0  -91.9  -11.0  145.8   -5.4   250.6
 14 JAN 23  23:18:00:00     399    3.5      40   -2.7      234.0  -92.0  -11.0  145.8   -5.4   250.0
 14 JAN 23  23:19:00:00     392    3.1      39   -2.3      233.9  -92.1  -10.9  145.8   -5.4   249.5
 14 JAN 23  23:20:00:00     393    2.9      41   -3.4      233.9  -92.1  -10.9  145.8   -5.4   249.0
 14 JAN 23  23:21:00:00     378    3.1      37   -2.7      233.8  -92.2  -10.9  145.8   -5.4   248.4
 14 JAN 23  23:22:00:00     365    2.3      34   -1.4      233.8  -92.3  -10.9  145.8   -5.4   247.9
 14 JAN 23  23:23:00:00     353    2.3      30   -2.0      233.7  -92.3  -10.9  145.8   -5.4   247.3
 14 JAN 24  24:00:00:00     353    4.8      22   -1.3      233.7  -92.4  -10.8  145.8   -5.4   246.8
 14 JAN 24  24:01:00:00     358    4.4      22    1.9      233.7  -92.5  -10.8  145.8   -5.4   246.2
 14 JAN 24  24:02:00:00     353    4.8      20    2.3      233.6  -92.5  -10.8  145.8   -5.4   245.7
 14 JAN 24  24:03:00:00     351    3.7      22    0.3      233.6  -92.6  -10.8  145.8   -5.4   245.1
 14 JAN 24  24:04:00:00     345    3.4      24    0.5      233.5  -92.7  -10.7  145.8   -5.4   244.6
 14 JAN 24  24:05:00:00     351    3.2      28    1.4      233.5  -92.7  -10.7  145.8   -5.4   244.0
 14 JAN 24  24:06:00:00     350    2.9      28    3.4      233.4  -92.8  -10.7  145.8   -5.4   243.4
 14 JAN 24  24:07:00:00     352    3.9      28    4.5      233.4  -92.9  -10.7  145.8   -5.4   242.9
 14 JAN 24  24:08:00:00     351    3.9      28    3.7      233.3  -92.9  -10.7  145.8   -5.4   242.4
 14 JAN 24  24:09:00:00     349    3.7      26    2.7      233.3  -93.0  -10.6  145.8   -5.4   241.8
 14 JAN 24  24:10:00:00     346    3.9      25    1.1      233.2  -93.1  -10.6  145.8   -5.4   241.3
 14 JAN 24  24:11:00:00     358    4.8      29   -0.5      233.2  -93.1  -10.6  145.8   -5.4   240.8
 14 JAN 24  24:12:00:00     355    5.8      24   -0.4      233.1  -93.2  -10.6  145.8   -5.4   240.2
 14 JAN 24  24:13:00:00     352    5.3      26    0.3      233.1  -93.3  -10.5  145.8   -5.5   239.6
 14 JAN 24  24:14:00:00     353    4.8      26    0.2      233.0  -93.3  -10.5  145.8   -5.5   239.1
 14 JAN 24  24:15:00:00     353    4.3      28   -2.5      233.0  -93.4  -10.5  145.8   -5.5   238.5
 14 JAN 24  24:16:00:00     359    3.5      32   -1.8      233.0  -93.5  -10.5  145.8   -5.5   238.0
 14 JAN 24  24:17:00:00     360    3.9      31   -1.8      232.9  -93.5  -10.5  145.8   -5.5   237.4
 14 JAN 24  24:18:00:00     358    4.4      32    0.5      232.9  -93.6  -10.4  145.8   -5.5   236.9
 14 JAN 24  24:19:00:00     355    3.6      33   -1.6      232.8  -93.7  -10.4  145.8   -5.5   236.3
 14 JAN 24  24:20:00:00     355    3.7      33   -0.7      232.8  -93.7  -10.4  145.8   -5.5   235.8
 14 JAN 24  24:21:00:00     351    3.6      29   -2.3      232.7  -93.8  -10.4  145.8   -5.5   235.3
 14 JAN 24  24:22:00:00     358    3.7      35    1.4      232.7  -93.9  -10.4  145.8   -5.5   234.7
 14 JAN 24  24:23:00:00     357    7.9      35    4.9      232.6  -93.9  -10.3  145.8   -5.5   234.2
 14 JAN 25  25:00:00:00     365    7.6      34    6.2      232.6  -94.0  -10.3  145.8   -5.5   233.6
 14 JAN 25  25:01:00:00     360    7.6      31    6.9      232.5  -94.1  -10.3  145.8   -5.5   233.1
 14 JAN 25  25:02:00:00     352    5.4      30    4.8      232.5  -94.1  -10.3  145.8   -5.5   232.5
 14 JAN 25  25:03:00:00     360    5.9      25    5.5      232.4  -94.2  -10.2  145.8   -5.5   231.9
 14 JAN 25  25:04:00:00     358    6.0      26    5.4      232.4  -94.2  -10.2  145.8   -5.5   231.4
 14 JAN 25  25:05:00:00     351    5.0      27    5.8      232.3  -94.3  -10.2  145.8   -5.5   230.8
 14 JAN 25  25:06:00:00     346    4.0      30    4.4      232.3  -94.4  -10.2  145.8   -5.6   230.3
 14 JAN 25  25:07:00:00     339    3.9      27    3.2      232.3  -94.4  -10.2  145.8   -5.6   229.8
 14 JAN 25  25:08:00:00     330    3.3      25   -0.7      232.2  -94.5  -10.1  145.8   -5.6   229.2
 14 JAN 25  25:09:00:00     339    3.5      28    2.5      232.2  -94.5  -10.1  145.8   -5.6   228.7
 14 JAN 25  25:10:00:00     336    3.3      26    0.4      232.1  -94.6  -10.1  145.8   -5.6   228.1
 14 JAN 25  25:11:00:00     335    2.9      25   -2.8      232.1  -94.7  -10.1  145.8   -5.6   227.6
 14 JAN 25  25:12:00:00     335    3.4      27    2.4      232.0  -94.7  -10.0  145.8   -5.6   227.0
 14 JAN 25  25:13:00:00     329    3.5      25    3.4      232.0  -94.8  -10.0  145.8   -5.6   226.5
 14 JAN 25  25:14:00:00     331    3.3      26    3.6      231.9  -94.8  -10.0  145.8   -5.6   225.9
 14 JAN 25  25:15:00:00     335    3.6      26    1.5      231.9  -94.9  -10.0  145.8   -5.6   225.4
 14 JAN 25  25:16:00:00     339    4.1      26    0.4      231.8  -95.0  -10.0  145.8   -5.6   224.8
 14 JAN 25  25:17:00:00     340    4.0      26    2.2      231.8  -95.0   -9.9  145.8   -5.6   224.3
 14 JAN 25  25:18:00:00     321    3.8      23    1.9      231.7  -95.1   -9.9  145.8   -5.6   223.7
 14 JAN 25  25:19:00:00     337    3.6      27    2.1      231.7  -95.1   -9.9  145.8   -5.6   223.2
 14 JAN 25  25:20:00:00     355    3.7      30    3.4      231.6  -95.2   -9.9  145.8   -5.6   222.7
 14 JAN 25  25:21:00:00     354    3.5      30    3.3      231.6  -95.3   -9.8  145.8   -5.6   222.1
 14 JAN 25  25:22:00:00     347    5.4      26    5.7      231.5  -95.3   -9.8  145.8   -5.6   221.6
 14 JAN 25  25:23:00:00     340    4.5      25    4.6      231.5  -95.4   -9.8  145.8   -5.6   221.0
 14 JAN 26  26:00:00:00     349    4.3      24   -0.2      231.4  -95.4   -9.8  145.8   -5.6   220.4
 14 JAN 26  26:01:00:00     351    4.8      26    4.4      231.4  -95.5   -9.7  145.8   -5.6   219.9
 14 JAN 26  26:02:00:00     354    4.6      29    3.5      231.4  -95.5   -9.7  145.8   -5.6   219.3
 14 JAN 26  26:03:00:00     341    4.8      28    2.7      231.3  -95.6   -9.7  145.8   -5.6   218.8
 14 JAN 26  26:04:00:00     342    6.4      27    4.6      231.3  -95.7   -9.7  145.8   -5.6   218.2
 14 JAN 26  26:05:00:00     342    6.0      25    6.1      231.2  -95.7   -9.7  145.8   -5.6   217.7
 14 JAN 26  26:06:00:00     340    5.0      26    3.9      231.2  -95.8   -9.6  145.8   -5.6   217.2
 14 JAN 26  26:07:00:00     340    3.9      27    0.9      231.1  -95.8   -9.6  145.8   -5.6   216.6
 14 JAN 26  26:08:00:00     343    4.4      27   -0.4      231.1  -95.9   -9.6  145.8   -5.6   216.1
 14 JAN 26  26:09:00:00     345    4.3      26   -0.4      231.0  -95.9   -9.6  145.8   -5.6   215.5
 14 JAN 26  26:10:00:00     345    4.4      27    1.6      231.0  -96.0   -9.5  145.8   -5.6   215.0
 14 JAN 26  26:11:00:00     342    3.9      27    2.5      230.9  -96.0   -9.5  145.8   -5.6   214.4
 14 JAN 26  26:12:00:00     342    3.5      26   -1.2      230.9  -96.1   -9.5  145.8   -5.6   213.9
 14 JAN 26  26:13:00:00     341    3.5      26   -1.3      230.8  -96.1   -9.5  145.8   -5.6   213.3
 14 JAN 26  26:14:00:00     340    3.6      27    0.7      230.8  -96.2   -9.5  145.8   -5.6   212.7
 14 JAN 26  26:15:00:00     344    4.0      29    1.8      230.7  -96.2   -9.4  145.8   -5.6   212.2
 14 JAN 26  26:16:00:00     345    3.7      28    2.7      230.7  -96.3   -9.4  145.8   -5.7   211.7
 14 JAN 26  26:17:00:00     349    3.7      29    2.5      230.6  -96.4   -9.4  145.8   -5.7   211.1
 14 JAN 26  26:18:00:00     343    4.4      27   -1.1      230.6  -96.4   -9.4  145.8   -5.7   210.6
 14 JAN 26  26:19:00:00     337    3.7      26   -2.0      230.5  -96.5   -9.3  145.8   -5.7   210.0
 14 JAN 26  26:20:00:00     346    3.6      28    2.3      230.5  -96.5   -9.3  145.8   -5.7   209.5
 14 JAN 26  26:21:00:00     347    3.5      29    2.3      230.4  -96.6   -9.3  145.8   -5.7   208.9
 14 JAN 26  26:22:00:00     338    3.5      26    2.5      230.4  -96.6   -9.3  145.8   -5.7   208.4
 14 JAN 26  26:23:00:00     336    3.6      25   -2.8      230.3  -96.7   -9.3  145.8   -5.7   207.8
 14 JAN 27  27:00:00:00     333    3.3      25   -1.7      230.3  -96.7   -9.2  145.8   -5.7   207.3
 14 JAN 27  27:01:00:00     338    3.7      26    3.3      230.2  -96.8   -9.2  145.8   -5.7   206.7
 14 JAN 27  27:02:00:00     336    4.0      26    3.4      230.2  -96.8   -9.2  145.8   -5.7   206.2
 14 JAN 27  27:03:00:00     331    3.1      24   -3.3      230.2  -96.9   -9.2  145.8   -5.7   205.6
 14 JAN 27  27:04:00:00     340    2.5      25    0.0      230.1  -96.9   -9.1  145.8   -5.7   205.1
 14 JAN 27  27:05:00:00     340    2.2      24   -0.2      230.1  -97.0   -9.1  145.8   -5.7   204.5
 14 JAN 27  27:06:00:00     338    2.2      25    1.4      230.0  -97.0   -9.1  145.8   -5.7   204.0
 14 JAN 27  27:07:00:00     315    3.2      21    1.0      230.0  -97.1   -9.1  145.8   -5.7   203.5
 14 JAN 27  27:08:00:00     315    3.4      21    0.4      229.9  -97.1   -9.0  145.9   -5.7   202.9
 14 JAN 27  27:09:00:00     324    3.0      24    1.6      229.9  -97.2   -9.0  145.9   -5.7   202.4
 14 JAN 27  27:10:00:00     329    3.6      25    2.7      229.8  -97.2   -9.0  145.9   -5.7   201.8
 14 JAN 27  27:11:00:00     327    3.9      23    0.1      229.8  -97.3   -9.0  145.9   -5.7   201.2
 14 JAN 27  27:12:00:00     325    3.6      23    0.8      229.7  -97.3   -9.0  145.9   -5.7   200.7
 14 JAN 27  27:13:00:00     325    4.0      22    4.8      229.7  -97.3   -8.9  145.9   -5.7   200.1
 14 JAN 27  27:14:00:00     320    3.8      20    4.2      229.6  -97.4   -8.9  145.9   -5.7   199.6
 14 JAN 27  27:15:00:00     310    2.8      20    2.0      229.6  -97.4   -8.9  145.9   -5.7   199.0
 14 JAN 27  27:16:00:00     306    3.5      20    2.0      229.5  -97.5   -8.9  145.9   -5.7   198.5
 14 JAN 27  27:17:00:00     323    4.2      21    4.4      229.5  -97.5   -8.8  145.9   -5.7   198.0
 14 JAN 27  27:18:00:00     320    4.5      21    4.3      229.4  -97.6   -8.8  145.9   -5.7   197.4
 14 JAN 27  27:19:00:00     303    5.8      19    2.9      229.4  -97.6   -8.8  145.9   -5.7   196.9
 14 JAN 27  27:20:00:00     317    6.9      19    5.4      229.3  -97.7   -8.8  145.9   -5.7   196.3
 14 JAN 27  27:21:00:00     304    6.5      19    1.2      229.3  -97.7   -8.7  145.9   -5.7   195.8
 14 JAN 27  27:22:00:00     290    5.0      18    0.8      229.2  -97.8   -8.7  145.9   -5.7   195.2
 14 JAN 27  27:23:00:00     285    7.8      17   -0.1      229.2  -97.8   -8.7  145.9   -5.7   194.7
 14 JAN 28  28:00:00:00     282    6.0      17    1.2      229.1  -97.9   -8.7  145.9   -5.7   194.1
 14 JAN 28  28:01:00:00     283    5.1      17    1.3      229.1  -97.9   -8.7  145.9   -5.7   193.5
 14 JAN 28  28:02:00:00     284    5.1      17    1.5      229.0  -97.9   -8.6  145.9   -5.8   193.0
 14 JAN 28  28:03:00:00     284    5.5      17    1.6      229.0  -98.0   -8.6  145.9   -5.8   192.5
 14 JAN 28  28:04:00:00     285    5.1      17    1.8      228.9  -98.0   -8.6  145.9   -5.8   191.9
 14 JAN 28  28:05:00:00     284    5.6      17    1.6      228.9  -98.1   -8.6  145.9   -5.8   191.4
 14 JAN 28  28:06:00:00     284    5.0      17    1.2      228.8  -98.1   -8.5  145.9   -5.8   190.9
 14 JAN 28  28:07:00:00     289    4.8      18    1.6      228.8  -98.2   -8.5  145.9   -5.8   190.3
 14 JAN 28  28:08:00:00     282    5.4      17    1.2      228.7  -98.2   -8.5  145.9   -5.8   189.7
 14 JAN 28  28:09:00:00     282    4.4      17    1.4      228.7  -98.2   -8.5  145.9   -5.8   189.2
 14 JAN 28  28:10:00:00     284    4.6      17    1.2      228.6  -98.3   -8.4  145.9   -5.8   188.6
 14 JAN 28  28:11:00:00     283    5.3      17    1.2      228.6  -98.3   -8.4  145.9   -5.8   188.1
 14 JAN 28  28:12:00:00     294    4.4      18    0.8      228.5  -98.4   -8.4  145.9   -5.8   187.5
 14 JAN 28  28:13:00:00     325    3.4      24   -1.1      228.5  -98.4   -8.4  145.9   -5.8   187.0
 14 JAN 28  28:14:00:00     348    5.5      25   -2.9      228.4  -98.5   -8.4  145.9   -5.8   186.4
 14 JAN 28  28:15:00:00     343    4.2      22   -5.5      228.4  -98.5   -8.3  145.9   -5.8   185.9
 14 JAN 28  28:16:00:00     348    4.5      22   -5.8      228.3  -98.5   -8.3  145.9   -5.8   185.4
 14 JAN 28  28:17:00:00     352    4.2      23   -6.4      228.3  -98.6   -8.3  145.9   -5.8   184.8
 14 JAN 28  28:18:00:00     357    3.5      25   -3.8      228.2  -98.6   -8.3  145.9   -5.8   184.3
 14 JAN 28  28:19:00:00     349    3.9      25   -7.7      228.2  -98.7   -8.2  145.9   -5.8   183.7
 14 JAN 28  28:20:00:00     349    2.8      26   -7.3      228.1  -98.7   -8.2  145.9   -5.8   183.1
 14 JAN 28  28:21:00:00     374    4.2      29    3.3      228.1  -98.7   -8.2  145.9   -5.8   182.6
 14 JAN 28  28:22:00:00     377    3.2      36    2.1      228.0  -98.8   -8.2  145.9   -5.8   182.0
 14 JAN 28  28:23:00:00     407    2.6      46    0.8      228.0  -98.8   -8.1  145.9   -5.8   181.5
 14 JAN 29  29:00:00:00     447    5.5      56    5.2      227.9  -98.8   -8.1  145.9   -5.8   180.9
 14 JAN 29  29:01:00:00     444    5.5      55    5.5      227.9  -98.9   -8.1  145.9   -5.8   180.4
 14 JAN 29  29:02:00:00     440    4.8      55    3.1      227.8  -98.9   -8.1  145.9   -5.8   179.9
 14 JAN 29  29:03:00:00     450    4.2      55    2.2      227.8  -99.0   -8.1  145.9   -5.8   179.3
 14 JAN 29  29:04:00:00     446    3.9      55    2.6      227.7  -99.0   -8.0  145.9   -5.8   178.8
 14 JAN 29  29:05:00:00     439    3.7      55    1.1      227.7  -99.0   -8.0  145.9   -5.8   178.2
 14 JAN 29  29:06:00:00     440    4.0      55    0.2      227.6  -99.1   -8.0  145.9   -5.8   177.7
 14 JAN 29  29:07:00:00     422    3.7      54    0.0      227.6  -99.1   -8.0  145.9   -5.8   177.1
 14 JAN 29  29:08:00:00     426    3.8      54   -0.8      227.5  -99.1   -7.9  145.9   -5.8   176.6
 14 JAN 29  29:09:00:00     429    3.6      53   -1.2      227.5  -99.2   -7.9  145.9   -5.8   176.0
 14 JAN 29  29:10:00:00     429    5.0      49   -1.4      227.4  -99.2   -7.9  145.9   -5.8   175.4
 14 JAN 29  29:11:00:00     432    4.5      48   -3.0      227.4  -99.3   -7.9  145.9   -5.8   174.9
 14 JAN 29  29:12:00:00     433    4.2      44   -4.7      227.3  -99.3   -7.8  145.9   -5.8   174.4
 14 JAN 29  29:13:00:00     429    3.8      43   -5.1      227.3  -99.3   -7.8  145.9   -5.8   173.8
 14 JAN 29  29:14:00:00     434    3.1      46   -3.9      227.2  -99.4   -7.8  145.9   -5.8   173.3
 14 JAN 29  29:15:00:00     432    2.8      43   -5.3      227.2  -99.4   -7.8  145.9   -5.9   172.7
 14 JAN 29  29:16:00:00     416    3.1      38   -5.0      227.1  -99.4   -7.7  145.9   -5.9   172.2
 14 JAN 29  29:17:00:00     411    2.3      36   -4.3      227.1  -99.5   -7.7  145.9   -5.9   171.6
 14 JAN 29  29:18:00:00     409    2.6      36   -4.6      227.0  -99.5   -7.7  145.9   -5.9   171.1
 14 JAN 29  29:19:00:00     386    3.0      31   -3.1      227.0  -99.5   -7.7  145.9   -5.9   170.5
 14 JAN 29  29:20:00:00     376    2.5      32   -0.7      226.9  -99.6   -7.7  145.9   -5.9   170.0
 14 JAN 29  29:21:00:00     384    3.5      34    1.1      226.9  -99.6   -7.6  145.9   -5.9   169.4
 14 JAN 29  29:22:00:00     365    2.8      32   -2.3      226.8  -99.6   -7.6  145.9   -5.9   168.9
 14 JAN 29  29:23:00:00     360    3.4      29   -3.3      226.7  -99.7   -7.6  145.9   -5.9   168.3
 14 JAN 30  30:00:00:00     359    3.3      25   -2.1      226.7  -99.7   -7.6  145.9   -5.9   167.8
 14 JAN 30  30:01:00:00     366    2.9      28    0.5      226.6  -99.7   -7.5  145.9   -5.9   167.2
 14 JAN 30  30:02:00:00     365    3.7      26    1.5      226.6  -99.8   -7.5  145.9   -5.9   166.7
 14 JAN 30  30:03:00:00     355    3.7      23   -0.3      226.5  -99.8   -7.5  145.9   -5.9   166.2
 14 JAN 30  30:04:00:00     349    2.8      27   -3.6      226.5  -99.8   -7.5  145.9   -5.9   165.6
 14 JAN 30  30:05:00:00     351    2.4      26   -3.0      226.4  -99.9   -7.4  145.9   -5.9   165.1
 14 JAN 30  30:06:00:00     351    2.0      26   -1.3      226.4  -99.9   -7.4  145.9   -5.9   164.5
 14 JAN 30  30:07:00:00     354    2.3      23    0.1      226.3  -99.9   -7.4  145.9   -5.9   163.9
 14 JAN 30  30:08:00:00     352    2.4      21    0.5      226.3 -100.0   -7.4  145.9   -5.9   163.4
 14 JAN 30  30:09:00:00     350    2.2      21    0.6      226.2 -100.0   -7.3  145.9   -6.0   162.8
 14 JAN 30  30:10:00:00     350    2.9      20    0.3      226.2 -100.0   -7.3  145.9   -6.0   162.3
 14 JAN 30  30:11:00:00     354    2.7      22    0.1      226.1 -100.0   -7.3  145.9   -6.0   161.7
 14 JAN 30  30:12:00:00     356    2.2      23    0.1      226.1 -100.1   -7.3  145.9   -6.0   161.2
 14 JAN 30  30:13:00:00     353    1.7      24   -0.2      226.0 -100.1   -7.3  145.9   -6.0   160.7
 14 JAN 30  30:14:00:00     352    1.8      25   -1.4      226.0 -100.1   -7.2  145.9   -6.0   160.1
 14 JAN 30  30:15:00:00     351    1.4      26    0.1      225.9 -100.2   -7.2  145.9   -6.0   159.6
 14 JAN 30  30:16:00:00     356    2.8      22    4.2      225.9 -100.2   -7.2  145.9   -6.0   159.0
 14 JAN 30  30:17:00:00     353    2.3      21    3.2      225.8 -100.2   -7.2  145.9   -6.0   158.5
 14 JAN 30  30:18:00:00     354    3.4      20    6.5      225.8 -100.3   -7.1  145.9   -6.0   157.9
 14 JAN 30  30:19:00:00     349    1.3      26    2.2      225.7 -100.3   -7.1  145.9   -6.0   157.4
 14 JAN 30  30:20:00:00     346    0.9      27   -0.8      225.6 -100.3   -7.1  145.9   -6.0   156.8
 14 JAN 30  30:21:00:00     343    0.6      25   -1.1      225.6 -100.3   -7.1  145.9   -6.0   156.2
 14 JAN 30  30:22:00:00     343    0.7      22    0.0      225.5 -100.4   -7.0  145.9   -6.0   155.7
 14 JAN 30  30:23:00:00     345    0.9      22   -0.2      225.5 -100.4   -7.0  145.9   -6.0   155.2
 14 JAN 31  31:00:00:00     343    0.5      26   -0.3      225.4 -100.4   -7.0  145.9   -6.0   154.6
 14 JAN 31  31:01:00:00     344    0.8      25    0.7      225.4 -100.4   -7.0  146.0   -6.0   154.1
 14 JAN 31  31:02:00:00     350    1.0      26    0.2      225.3 -100.5   -6.9  146.0   -6.0   153.6
 14 JAN 31  31:03:00:00     349    1.5      21    0.3      225.3 -100.5   -6.9  146.0   -6.0   153.0
 14 JAN 31  31:04:00:00     348    1.6      19    0.3      225.2 -100.5   -6.9  146.0   -6.0   152.4
 14 JAN 31  31:05:00:00     347    1.8      19    1.3      225.2 -100.6   -6.9  146.0   -6.0   151.9
 14 JAN 31  31:06:00:00     346    2.0      19    2.0      225.1 -100.6   -6.9  146.0   -6.0   151.3
 14 JAN 31  31:07:00:00     345    1.1      20    2.6      225.1 -100.6   -6.8  146.0   -6.0   150.8
 14 JAN 31  31:08:00:00     326    1.7      21    2.3      225.0 -100.6   -6.8  146.0   -6.0   150.2
 14 JAN 31  31:09:00:00     333    1.1      23    2.3      225.0 -100.7   -6.8  146.0   -6.0   149.7
 14 JAN 31  31:10:00:00     341    1.6      23    2.6      224.9 -100.7   -6.8  146.0   -6.0   149.1
 14 JAN 31  31:11:00:00     338    1.7      23    4.0      224.8 -100.7   -6.7  146.0   -6.0   148.6
 14 JAN 31  31:12:00:00     336    1.8      23    4.7      224.8 -100.7   -6.7  146.0   -6.0   148.1
 14 JAN 31  31:13:00:00     334    1.9      21    4.8      224.7 -100.8   -6.7  146.0   -6.0   147.5
 14 JAN 31  31:14:00:00     325    1.4      21    4.0      224.7 -100.8   -6.7  146.0   -6.0   147.0
 14 JAN 31  31:15:00:00     321    1.7      20    3.9      224.6 -100.8   -6.6  146.0   -6.0   146.4
 14 JAN 31  31:16:00:00     310    2.3      19    3.3      224.6 -100.8   -6.6  146.0   -6.0   145.9
 14 JAN 31  31:17:00:00     307    2.5      19    3.2      224.5 -100.9   -6.6  146.0   -6.0   145.3
 14 JAN 31  31:18:00:00     306    2.5      19    3.2      224.5 -100.9   -6.6  146.0   -6.0   144.7
 14 JAN 31  31:19:00:00     297    2.9      19    3.0      224.4 -100.9   -6.5  146.0   -6.0   144.2
 14 JAN 31  31:20:00:00     288    3.9      17    2.6      224.4 -100.9   -6.5  146.0   -6.0   143.6
 14 JAN 31  31:21:00:00     287    4.4      17    2.4      224.3 -101.0   -6.5  146.0   -6.0   143.1
 14 JAN 31  31:22:00:00     285    4.6      17    2.2      224.3 -101.0   -6.5  146.0   -6.0   142.6
 14 JAN 31  31:23:00:00     281    4.9      17    2.0      224.2 -101.0   -6.4  146.0   -6.1   142.0
 14 FEB  1  32:00:00:00     279    3.9      16    1.6      224.1 -101.0   -6.4  146.0   -6.1   141.5
 14 FEB  1  32:01:00:00     277    5.6      16    1.4      224.1 -101.0   -6.4  146.0   -6.1   140.9
 14 FEB  1  32:02:00:00     276    6.2      15    1.4      224.0 -101.1   -6.4  146.0   -6.1   140.4
 14 FEB  1  32:03:00:00     277    6.8      16    1.3      224.0 -101.1   -6.4  146.0   -6.1   139.8
 14 FEB  1  32:04:00:00     284    6.9      17    1.0      223.9 -101.1   -6.3  146.0   -6.1   139.3
 14 FEB  1  32:05:00:00     286    7.2      17    0.8      223.9 -101.1   -6.3  146.0   -6.1   138.7
 14 FEB  1  32:06:00:00     280    7.8      16    0.9      223.8 -101.2   -6.3  146.0   -6.1   138.2
 14 FEB  1  32:07:00:00     280    7.9      16    0.6      223.8 -101.2   -6.3  146.0   -6.1   137.6
 14 FEB  1  32:08:00:00     277    8.7      15    0.6      223.7 -101.2   -6.2  146.0   -6.1   137.1
 14 FEB  1  32:09:00:00     281    7.5      16    0.9      223.7 -101.2   -6.2  146.0   -6.1   136.5
 14 FEB  1  32:10:00:00     296    5.2      19    1.4      223.6 -101.2   -6.2  146.0   -6.1   136.0
 14 FEB  1  32:11:00:00     305    4.8      20    0.9      223.5 -101.3   -6.2  146.0   -6.1   135.4
 14 FEB  1  32:12:00:00     307    4.4      20    0.9      223.5 -101.3   -6.1  146.0   -6.1   134.9
 14 FEB  1  32:13:00:00     319    4.4      22    1.2      223.4 -101.3   -6.1  146.0   -6.1   134.3
 14 FEB  1  32:14:00:00     320    4.5      22    0.6      223.4 -101.3   -6.1  146.0   -6.1   133.8
 14 FEB  1  32:15:00:00     327    3.8      24    1.3      223.3 -101.3   -6.1  146.0   -6.1   133.2
 14 FEB  1  32:16:00:00     327    4.4      23    0.7      223.3 -101.4   -6.0  146.0   -6.1   132.7
 14 FEB  1  32:17:00:00     335    4.2      25    1.2      223.2 -101.4   -6.0  146.0   -6.1   132.1
 14 FEB  1  32:18:00:00     334    4.0      25    0.4      223.2 -101.4   -6.0  146.0   -6.1   131.6
 14 FEB  1  32:19:00:00     352    5.7      28    0.4      223.1 -101.4   -6.0  146.0   -6.1   131.0
 14 FEB  1  32:20:00:00     346    4.9      26   -0.7      223.0 -101.4   -5.9  146.0   -6.1   130.5
 14 FEB  1  32:21:00:00     347    4.8      26    0.9      223.0 -101.4   -5.9  146.0   -6.1   129.9
 14 FEB  1  32:22:00:00     346    4.0      28    0.5      222.9 -101.5   -5.9  146.0   -6.1   129.4
 14 FEB  1  32:23:00:00     358    6.7      27    0.7      222.9 -101.5   -5.9  146.0   -6.1   128.9
 14 FEB  2  33:00:00:00     349    5.1      28    2.3      222.8 -101.5   -5.8  146.0   -6.1   128.3
 14 FEB  2  33:01:00:00     347    4.4      29    0.5      222.8 -101.5   -5.8  146.0   -6.1   127.8
 14 FEB  2  33:02:00:00     353    5.4      29    1.0      222.7 -101.5   -5.8  146.0   -6.1   127.2
 14 FEB  2  33:03:00:00     358    7.1      29   -0.9      222.7 -101.6   -5.8  146.0   -6.1   126.6
 14 FEB  2  33:04:00:00     372    8.2      33    2.7      222.6 -101.6   -5.8  146.0   -6.1   126.1
 14 FEB  2  33:05:00:00     376    8.3      33    2.8      222.5 -101.6   -5.7  146.0   -6.1   125.5
 14 FEB  2  33:06:00:00     360    7.2      29    2.1      222.5 -101.6   -5.7  146.0   -6.1   125.0
 14 FEB  2  33:07:00:00     359    6.3      29   -0.6      222.4 -101.6   -5.7  146.0   -6.1   124.4
 14 FEB  2  33:08:00:00     366    6.5      30    0.7      222.4 -101.6   -5.7  146.0   -6.1   123.9
 14 FEB  2  33:09:00:00     369    6.7      30    2.3      222.3 -101.7   -5.6  146.0   -6.1   123.4
 14 FEB  2  33:10:00:00     364    6.0      29    2.7      222.3 -101.7   -5.6  146.0   -6.1   122.8
 14 FEB  2  33:11:00:00     368    6.0      29    1.4      222.2 -101.7   -5.6  146.0   -6.1   122.3
 14 FEB  2  33:12:00:00     380    6.4      34    0.0      222.2 -101.7   -5.6  146.0   -6.1   121.7
 14 FEB  2  33:13:00:00     379    5.4      37   -1.4      222.1 -101.7   -5.5  146.0   -6.1   121.2
 14 FEB  2  33:14:00:00     369    5.3      34   -1.8      222.0 -101.7   -5.5  146.0   -6.1   120.6
 14 FEB  2  33:15:00:00     377    5.3      32    1.1      222.0 -101.7   -5.5  146.0   -6.1   120.1
 14 FEB  2  33:16:00:00     382    5.5      33    1.4      221.9 -101.8   -5.5  146.0   -6.2   119.5
 14 FEB  2  33:17:00:00     368    4.7      32    1.2      221.9 -101.8   -5.4  146.0   -6.2   118.9
 14 FEB  2  33:18:00:00     371    4.2      34   -0.8      221.8 -101.8   -5.4  146.0   -6.2   118.4
 14 FEB  2  33:19:00:00     361    4.1      32   -2.0      221.8 -101.8   -5.4  146.0   -6.2   117.9
 14 FEB  2  33:20:00:00     355    3.6      33   -1.5      221.7 -101.8   -5.4  146.0   -6.2   117.3
 14 FEB  2  33:21:00:00     365    3.6      34   -0.5      221.7 -101.8   -5.3  146.0   -6.2   116.8
 14 FEB  2  33:22:00:00     372    4.2      34   -0.6      221.6 -101.8   -5.3  146.0   -6.2   116.3
 14 FEB  2  33:23:00:00     390    7.5      39   -2.2      221.5 -101.9   -5.3  146.0   -6.2   115.7
 14 FEB  3  34:00:00:00     409    9.5      38    1.3      221.5 -101.9   -5.3  146.0   -6.2   115.1
 14 FEB  3  34:01:00:00     405    8.1      40    2.5      221.4 -101.9   -5.2  146.0   -6.2   114.6
 14 FEB  3  34:02:00:00     397    7.5      44    1.7      221.4 -101.9   -5.2  146.0   -6.2   114.0
 14 FEB  3  34:03:00:00     396    7.4      40   -0.1      221.3 -101.9   -5.2  146.0   -6.2   113.5
 14 FEB  3  34:04:00:00     391    7.5      37    2.2      221.3 -101.9   -5.2  146.0   -6.2   112.9
 14 FEB  3  34:05:00:00     388    9.3      34    5.0      221.2 -101.9   -5.1  146.0   -6.2   112.4
 14 FEB  3  34:06:00:00     399   11.3      37    6.0      221.2 -102.0   -5.1  146.0   -6.2   111.8
 14 FEB  3  34:07:00:00     385   11.2      32    6.3      221.1 -102.0   -5.1  146.0   -6.2   111.3
 14 FEB  3  34:08:00:00     375    9.6      32    6.3      221.0 -102.0   -5.1  146.0   -6.2   110.8
 14 FEB  3  34:09:00:00     364    8.6      31    5.1      221.0 -102.0   -5.1  146.0   -6.2   110.2
 14 FEB  3  34:10:00:00     362    9.4      32    5.9      220.9 -102.0   -5.0  146.0   -6.2   109.7
 14 FEB  3  34:11:00:00     352   10.1      30    5.9      220.9 -102.0   -5.0  146.1   -6.2   109.1
 14 FEB  3  34:12:00:00     348   12.5      29    6.8      220.8 -102.0   -5.0  146.1   -6.2   108.6
 14 FEB  3  34:13:00:00     350    5.3      27    1.4      220.8 -102.0   -5.0  146.1   -6.2   108.0
 14 FEB  3  34:14:00:00     352    5.0      25    1.5      220.7 -102.0   -4.9  146.1   -6.2   107.4
 14 FEB  3  34:15:00:00     349    4.8      27    3.1      220.6 -102.1   -4.9  146.1   -6.2   106.9
 14 FEB  3  34:16:00:00     342    4.8      27    4.3      220.6 -102.1   -4.9  146.1   -6.2   106.3
 14 FEB  3  34:17:00:00     341    5.8      26    5.2      220.5 -102.1   -4.9  146.1   -6.2   105.8
 14 FEB  3  34:18:00:00     336    9.4      25    5.7      220.5 -102.1   -4.8  146.1   -6.2   105.3
 14 FEB  3  34:19:00:00     332    8.7      25    4.6      220.4 -102.1   -4.8  146.1   -6.2   104.7
 14 FEB  3  34:20:00:00     330    6.1      25    2.7      220.4 -102.1   -4.8  146.1   -6.2   104.2
 14 FEB  3  34:21:00:00     328    5.4      25    0.9      220.3 -102.1   -4.8  146.1   -6.2   103.6
 14 FEB  3  34:22:00:00     328    5.8      25    1.6      220.3 -102.1   -4.7  146.1   -6.2   103.1
 14 FEB  3  34:23:00:00     322    5.9      24    1.4      220.2 -102.1   -4.7  146.1   -6.2   102.5
 14 FEB  4  35:00:00:00     333    4.7      26    1.7      220.1 -102.1   -4.7  146.1   -6.2   102.0
 14 FEB  4  35:01:00:00     334    5.2      26    2.5      220.1 -102.2   -4.7  146.1   -6.2   101.4
 14 FEB  4  35:02:00:00     344    5.4      25    0.7      220.0 -102.2   -4.6  146.1   -6.2   100.8
 14 FEB  4  35:03:00:00     346    6.2      24    0.6      220.0 -102.2   -4.6  146.1   -6.2   100.3
 14 FEB  4  35:04:00:00     341    6.6      24   -0.6      219.9 -102.2   -4.6  146.1   -6.2    99.8
 14 FEB  4  35:05:00:00     340    5.9      24    1.4      219.9 -102.2   -4.6  146.1   -6.2    99.2
 14 FEB  4  35:06:00:00     339    5.4      25    1.4      219.8 -102.2   -4.5  146.1   -6.2    98.7
 14 FEB  4  35:07:00:00     335    6.1      24    0.2      219.7 -102.2   -4.5  146.1   -6.2    98.1
 14 FEB  4  35:08:00:00     330    7.3      24    0.4      219.7 -102.2   -4.5  146.1   -6.2    97.6
 14 FEB  4  35:09:00:00     331    6.8      24    0.6      219.6 -102.2   -4.5  146.1   -6.2    97.0
 14 FEB  4  35:10:00:00     331    6.6      24    1.6      219.6 -102.2   -4.4  146.1   -6.3    96.5
 14 FEB  4  35:11:00:00     330    7.1      24    2.3      219.5 -102.2   -4.4  146.1   -6.3    95.9
 14 FEB  4  35:12:00:00     325    8.2      23   -1.9      219.5 -102.2   -4.4  146.1   -6.3    95.4
 14 FEB  4  35:13:00:00     326   11.1      23   -4.9      219.4 -102.2   -4.4  146.1   -6.3    94.8
 14 FEB  4  35:14:00:00     329    7.9      23   -4.2      219.4 -102.3   -4.3  146.1   -6.3    94.3
 14 FEB  4  35:15:00:00     325    7.0      23   -1.8      219.3 -102.3   -4.3  146.1   -6.3    93.7
 14 FEB  4  35:16:00:00     328    5.5      24    0.3      219.2 -102.3   -4.3  146.1   -6.3    93.2
 14 FEB  4  35:17:00:00     335    8.3      25   -5.7      219.2 -102.3   -4.3  146.1   -6.3    92.6
 14 FEB  4  35:18:00:00     333    8.7      24   -6.0      219.1 -102.3   -4.2  146.1   -6.3    92.1
 14 FEB  4  35:19:00:00     331    9.4      24   -6.1      219.1 -102.3   -4.2  146.1   -6.3    91.6
 14 FEB  4  35:20:00:00     340    8.3      26   -5.1      219.0 -102.3   -4.2  146.1   -6.3    91.0
 14 FEB  4  35:21:00:00     348    8.2      28   -4.4      219.0 -102.3   -4.2  146.1   -6.3    90.5
 14 FEB  4  35:22:00:00     347    9.3      27   -4.3      218.9 -102.3   -4.1  146.1   -6.3    89.9
 14 FEB  4  35:23:00:00     347    7.8      29   -4.2      218.8 -102.3   -4.1  146.1   -6.3    89.3
 14 FEB  5  36:00:00:00     348    4.5      30   -2.7      218.8 -102.3   -4.1  146.1   -6.3    88.8
 14 FEB  5  36:01:00:00     354    2.9      29   -0.2      218.7 -102.3   -4.1  146.1   -6.3    88.2
 14 FEB  5  36:02:00:00     346    2.5      28   -4.1      218.7 -102.3   -4.1  146.1   -6.3    87.7
 14 FEB  5  36:03:00:00     341    4.7      26   -7.3      218.6 -102.3   -4.0  146.1   -6.3    87.1
 14 FEB  5  36:04:00:00     337    6.5      26   -7.4      218.6 -102.3   -4.0  146.1   -6.3    86.6
 14 FEB  5  36:05:00:00     336    6.2      26   -6.1      218.5 -102.3   -4.0  146.1   -6.3    86.1
 14 FEB  5  36:06:00:00     328    3.7      25   -3.7      218.5 -102.3   -4.0  146.1   -6.3    85.5
 14 FEB  5  36:07:00:00     345    4.0      31   -4.8      218.4 -102.3   -3.9  146.1   -6.3    85.0
 14 FEB  5  36:08:00:00     350    3.7      33   -3.5      218.3 -102.3   -3.9  146.1   -6.4    84.4
 14 FEB  5  36:09:00:00     342    3.7      32   -1.5      218.3 -102.4   -3.9  146.1   -6.4    83.9
 14 FEB  5  36:10:00:00     335    3.6      28   -1.6      218.2 -102.4   -3.9  146.1   -6.4    83.3
 14 FEB  5  36:11:00:00     342    4.1      27   -6.9      218.2 -102.4   -3.8  146.1   -6.4    82.8
 14 FEB  5  36:12:00:00     345    3.3      30   -3.8      218.1 -102.4   -3.8  146.1   -6.4    82.2
 14 FEB  5  36:13:00:00     346    4.1      33   -0.6      218.1 -102.4   -3.8  146.1   -6.4    81.6
 14 FEB  5  36:14:00:00     336    9.5      32   -2.4      218.0 -102.4   -3.8  146.1   -6.4    81.1
 14 FEB  5  36:15:00:00     342    9.0      32   -1.9      218.0 -102.4   -3.7  146.1   -6.4    80.6
 14 FEB  5  36:16:00:00     353    6.2      33    0.1      217.9 -102.4   -3.7  146.1   -6.4    80.0
 14 FEB  5  36:17:00:00     354    3.8      34    0.5      217.8 -102.4   -3.7  146.1   -6.4    79.5
 14 FEB  5  36:18:00:00     362    5.5      37   -0.8      217.8 -102.4   -3.7  146.1   -6.4    79.0
 14 FEB  5  36:19:00:00     372    5.3      36    0.1      217.7 -102.4   -3.6  146.1   -6.4    78.4
 14 FEB  5  36:20:00:00     367    6.3      33    6.2      217.7 -102.4   -3.6  146.1   -6.4    77.8
 14 FEB  5  36:21:00:00     397    9.4      35    8.7      217.6 -102.4   -3.6  146.1   -6.4    77.3
 14 FEB  5  36:22:00:00     384    6.1      36    6.9      217.6 -102.4   -3.6  146.1   -6.4    76.7
 14 FEB  5  36:23:00:00     404    7.7      34    8.1      217.5 -102.4   -3.5  146.1   -6.4    76.2
 14 FEB  6  37:00:00:00     402    7.7      31    7.8      217.5 -102.4   -3.5  146.1   -6.4    75.6
 14 FEB  6  37:01:00:00     383    4.8      31    4.4      217.4 -102.4   -3.5  146.1   -6.4    75.1
 14 FEB  6  37:02:00:00     377    4.4      32    3.4      217.3 -102.4   -3.5  146.1   -6.4    74.5
 14 FEB  6  37:03:00:00     373    4.7      28    4.3      217.3 -102.4   -3.4  146.1   -6.4    74.0
 14 FEB  6  37:04:00:00     374    2.6      30    2.4      217.2 -102.4   -3.4  146.1   -6.4    73.5
 14 FEB  6  37:05:00:00     370    2.5      28    1.0      217.2 -102.4   -3.4  146.1   -6.4    72.9
 14 FEB  6  37:06:00:00     366    2.6      30    3.1      217.1 -102.4   -3.4  146.1   -6.4    72.4
 14 FEB  6  37:07:00:00     370    3.1      26    3.7      217.1 -102.4   -3.3  146.1   -6.4    71.8
 14 FEB  6  37:08:00:00     374    3.6      25    4.2      217.0 -102.4   -3.3  146.1   -6.4    71.2
 14 FEB  6  37:09:00:00     371    3.2      24    2.8      217.0 -102.4   -3.3  146.1   -6.4    70.7
 14 FEB  6  37:10:00:00     368    3.0      23    1.9      216.9 -102.4   -3.3  146.1   -6.4    70.1
 14 FEB  6  37:11:00:00     361    2.0      29    1.9      216.8 -102.4   -3.2  146.1   -6.4    69.6
 14 FEB  6  37:12:00:00     364    1.7      33    1.2      216.8 -102.4   -3.2  146.1   -6.4    69.0
 14 FEB  6  37:13:00:00     363    1.6      27    1.5      216.7 -102.4   -3.2  146.1   -6.4    68.5
 14 FEB  6  37:14:00:00     367    1.8      25    1.9      216.7 -102.4   -3.2  146.1   -6.4    68.0
 14 FEB  6  37:15:00:00     366    1.6      23    1.8      216.6 -102.4   -3.1  146.1   -6.4    67.4
 14 FEB  6  37:16:00:00     362    1.4      23    1.0      216.6 -102.4   -3.1  146.2   -6.4    66.9
 14 FEB  6  37:17:00:00     381    1.6      30   -0.1      216.5 -102.4   -3.1  146.2   -6.4    66.3
 14 FEB  6  37:18:00:00     377    1.3      31    2.0      216.5 -102.4   -3.1  146.2   -6.4    65.8
 14 FEB  6  37:19:00:00     372    1.3      31    1.2      216.4 -102.4   -3.0  146.2   -6.4    65.2
 14 FEB  6  37:20:00:00     381    1.1      33    1.0      216.3 -102.4   -3.0  146.2   -6.4    64.7
 14 FEB  6  37:21:00:00     367    0.9      32    1.9      216.3 -102.4   -3.0  146.2   -6.4    64.1
 14 FEB  6  37:22:00:00     368    0.9      27    0.9      216.2 -102.4   -3.0  146.2   -6.4    63.5
 14 FEB  6  37:23:00:00     373    0.5      33    0.0      216.2 -102.4   -2.9  146.2   -6.4    63.0
 14 FEB  7  38:00:00:00     369    0.5      31    0.8      216.1 -102.4   -2.9  146.2   -6.4    62.5
 14 FEB  7  38:01:00:00     376    0.6      30    0.3      216.1 -102.4   -2.9  146.2   -6.4    61.9
 14 FEB  7  38:02:00:00     378    0.5      30   -0.3      216.0 -102.4   -2.9  146.2   -6.4    61.4
 14 FEB  7  38:03:00:00     363    0.6      28    0.2      216.0 -102.4   -2.8  146.2   -6.4    60.8
 14 FEB  7  38:04:00:00     375    0.7      28   -0.5      215.9 -102.3   -2.8  146.2   -6.4    60.3
 14 FEB  7  38:05:00:00     385    0.5      32   -1.5      215.9 -102.3   -2.8  146.2   -6.4    59.7
 14 FEB  7  38:06:00:00     368    0.8      30   -2.0      215.8 -102.3   -2.8  146.2   -6.5    59.2
 14 FEB  7  38:07:00:00     371    0.6      35   -1.1      215.7 -102.3   -2.7  146.2   -6.5    58.6
 14 FEB  7  38:08:00:00     353    0.8      34   -1.1      215.7 -102.3   -2.7  146.2   -6.5    58.1
 14 FEB  7  38:09:00:00     324    1.3      28    0.2      215.6 -102.3   -2.7  146.2   -6.5    57.5
 14 FEB  7  38:10:00:00     317    1.9      26   -0.2      215.6 -102.3   -2.7  146.2   -6.5    57.0
 14 FEB  7  38:11:00:00     327    1.6      28   -1.4      215.5 -102.3   -2.6  146.2   -6.5    56.4
 14 FEB  7  38:12:00:00     300    2.6      19    1.6      215.5 -102.3   -2.6  146.2   -6.5    55.9
 14 FEB  7  38:13:00:00     305    2.4      21    1.5      215.4 -102.3   -2.6  146.2   -6.5    55.3
 14 FEB  7  38:14:00:00     306    3.0      21    1.3      215.4 -102.3   -2.6  146.2   -6.5    54.8
 14 FEB  7  38:15:00:00     291    4.1      18    1.4      215.3 -102.3   -2.5  146.2   -6.5    54.3
 14 FEB  7  38:16:00:00     362    6.0      28   -4.0      215.3 -102.3   -2.5  146.2   -6.5    53.7
 14 FEB  7  38:17:00:00     425    5.9      34   -6.0      215.2 -102.3   -2.5  146.2   -6.5    53.1
 14 FEB  7  38:18:00:00     432    8.9      33   -8.1      215.1 -102.3   -2.5  146.2   -6.5    52.6
 14 FEB  7  38:19:00:00     433    5.4      34   -2.9      215.1 -102.3   -2.4  146.2   -6.5    52.0
 14 FEB  7  38:20:00:00     435    8.8      32   -6.0      215.0 -102.3   -2.4  146.2   -6.5    51.5
 14 FEB  7  38:21:00:00     443   13.5      33   -4.7      215.0 -102.3   -2.4  146.2   -6.5    50.9
 14 FEB  7  38:22:00:00     450    8.9      36   -1.3      214.9 -102.3   -2.4  146.2   -6.5    50.4
 14 FEB  7  38:23:00:00     455    7.4      36    0.0      214.9 -102.2   -2.3  146.2   -6.5    49.8
 14 FEB  8  39:00:00:00     466   10.7      47   -3.2      214.8 -102.2   -2.3  146.2   -6.5    49.3
 14 FEB  8  39:01:00:00     460   16.2      50   -4.0      214.8 -102.2   -2.3  146.2   -6.5    48.8
 14 FEB  8  39:02:00:00     471   15.0      56   -5.6      214.7 -102.2   -2.3  146.2   -6.5    48.2
 14 FEB  8  39:03:00:00     475   12.5      55   -3.6      214.7 -102.2   -2.2  146.2   -6.5    47.7
 14 FEB  8  39:04:00:00     469   10.7      52   -4.3      214.6 -102.2   -2.2  146.2   -6.5    47.1
 14 FEB  8  39:05:00:00     467   11.2      55   -1.9      214.6 -102.2   -2.2  146.2   -6.5    46.6
 14 FEB  8  39:06:00:00     452    8.7      51   -1.5      214.5 -102.2   -2.2  146.2   -6.5    46.0
 14 FEB  8  39:07:00:00     439    6.1      51   -2.8      214.5 -102.2   -2.1  146.2   -6.5    45.4
 14 FEB  8  39:08:00:00     447    3.7      51   -2.5      214.4 -102.2   -2.1  146.2   -6.5    44.9
 14 FEB  8  39:09:00:00     473    2.4      55   -0.8      214.3 -102.2   -2.1  146.2   -6.5    44.3
 14 FEB  8  39:10:00:00     452    3.0      52   -0.3      214.3 -102.2   -2.1  146.2   -6.5    43.8
 14 FEB  8  39:11:00:00     461    3.5      49    0.1      214.2 -102.1   -2.0  146.2   -6.5    43.3
 14 FEB  8  39:12:00:00     395    4.4      36   -0.3      214.2 -102.1   -2.0  146.2   -6.5    42.7
 14 FEB  8  39:13:00:00     403    4.5      37   -0.2      214.1 -102.1   -2.0  146.2   -6.5    42.2
 14 FEB  8  39:14:00:00     403    3.5      42    0.3      214.1 -102.1   -2.0  146.2   -6.5    41.6
 14 FEB  8  39:15:00:00     410    3.8      44    0.3      214.0 -102.1   -1.9  146.2   -6.5    41.1
 14 FEB  8  39:16:00:00     416    3.8      45   -0.4      214.0 -102.1   -1.9  146.2   -6.5    40.5
 14 FEB  8  39:17:00:00     399    3.6      39   -1.0      213.9 -102.1   -1.9  146.2   -6.5    40.0
 14 FEB  8  39:18:00:00     397    4.0      38   -1.4      213.9 -102.1   -1.9  146.2   -6.5    39.4
 14 FEB  8  39:19:00:00     398    5.4      34   -2.5      213.8 -102.1   -1.8  146.2   -6.5    38.9
 14 FEB  8  39:20:00:00     400    6.5      35   -3.4      213.8 -102.1   -1.8  146.2   -6.5    38.3
 14 FEB  8  39:21:00:00     379    7.8      28   -2.1      213.7 -102.0   -1.8  146.2   -6.5    37.8
 14 FEB  8  39:22:00:00     373    7.3      27   -2.3      213.7 -102.0   -1.8  146.2   -6.5    37.2
 14 FEB  8  39:23:00:00     379    7.7      29   -2.2      213.6 -102.0   -1.7  146.2   -6.5    36.7
 14 FEB  9  40:00:00:00     419    3.8      42   -0.1      213.6 -102.0   -1.7  146.2   -6.5    36.2
 14 FEB  9  40:01:00:00     421    4.3      43    1.2      213.5 -102.0   -1.7  146.2   -6.5    35.6
 14 FEB  9  40:02:00:00     422    4.4      40    0.6      213.5 -102.0   -1.7  146.2   -6.5    35.0
 14 FEB  9  40:03:00:00     447    4.0      46   -2.2      213.4 -102.0   -1.6  146.2   -6.5    34.5
 14 FEB  9  40:04:00:00     400    4.0      32   -1.8      213.3 -102.0   -1.6  146.2   -6.5    33.9
 14 FEB  9  40:05:00:00     393    3.6      30   -0.4      213.3 -102.0   -1.6  146.2   -6.5    33.4
 14 FEB  9  40:06:00:00     387    3.6      28    0.1      213.2 -101.9   -1.6  146.2   -6.5    32.8
 14 FEB  9  40:07:00:00     398    3.0      34    0.7      213.2 -101.9   -1.5  146.2   -6.5    32.3
 14 FEB  9  40:08:00:00     387    2.5      30    0.2      213.1 -101.9   -1.5  146.2   -6.6    31.7
 14 FEB  9  40:09:00:00     393    2.9      32    0.3      213.1 -101.9   -1.5  146.2   -6.6    31.2
 14 FEB  9  40:10:00:00     379    4.9      26    0.4      213.0 -101.9   -1.5  146.2   -6.6    30.7
 14 FEB  9  40:11:00:00     357    5.9      21    0.3      213.0 -101.9   -1.4  146.2   -6.6    30.1
 14 FEB  9  40:12:00:00     405    6.5      36    1.4      212.9 -101.9   -1.4  146.2   -6.6    29.6
 14 FEB  9  40:13:00:00     403    4.7      39    0.7      212.9 -101.9   -1.4  146.2   -6.6    29.0
 14 FEB  9  40:14:00:00     412    5.3      41    0.6      212.8 -101.8   -1.4  146.2   -6.6    28.5
 14 FEB  9  40:15:00:00     410    5.8      37   -0.9      212.8 -101.8   -1.3  146.2   -6.6    27.9
 14 FEB  9  40:16:00:00     418    6.1      37   -1.1      212.7 -101.8   -1.3  146.2   -6.6    27.3
 14 FEB  9  40:17:00:00     419    6.7      45   -0.9      212.7 -101.8   -1.3  146.2   -6.6    26.8
 14 FEB  9  40:18:00:00     418    7.7      48   -1.3      212.6 -101.8   -1.3  146.3   -6.6    26.2
 14 FEB  9  40:19:00:00     429    7.2      45    1.1      212.6 -101.8   -1.2  146.3   -6.6    25.7
 14 FEB  9  40:20:00:00     430    7.3      44    1.4      212.5 -101.7   -1.2  146.3   -6.6    25.2
 14 FEB  9  40:21:00:00     424    5.4      44    0.9      212.5 -101.7   -1.2  146.3   -6.6    24.6
 14 FEB  9  40:22:00:00     437    5.9      39    1.9      212.4 -101.7   -1.2  146.3   -6.6    24.1
 14 FEB  9  40:23:00:00     436    6.4      41    1.7      212.4 -101.7   -1.1  146.3   -6.6    23.5
 14 FEB 10  41:00:00:00     438    7.0      40    1.6      212.3 -101.7   -1.1  146.3   -6.6    23.0
 14 FEB 10  41:01:00:00     435    7.0      42    1.1      212.3 -101.7   -1.1  146.3   -6.6    22.4
 14 FEB 10  41:02:00:00     436    6.2      40    0.0      212.2 -101.7   -1.1  146.3   -6.6    21.9
 14 FEB 10  41:03:00:00     427    4.8      38   -0.4      212.2 -101.6   -1.0  146.3   -6.6    21.3
 14 FEB 10  41:04:00:00     426    4.8      38   -0.7      212.1 -101.6   -1.0  146.3   -6.6    20.8
 14 FEB 10  41:05:00:00     434    4.3      38    0.2      212.1 -101.6   -1.0  146.3   -6.6    20.2
 14 FEB 10  41:06:00:00     436    3.5      38   -0.4      212.0 -101.6   -1.0  146.3   -6.6    19.7
 14 FEB 10  41:07:00:00     427    2.6      39   -2.0      212.0 -101.6   -0.9  146.3   -6.6    19.1
 14 FEB 10  41:08:00:00     428    2.0      40    0.3      211.9 -101.6   -0.9  146.3   -6.6    18.6
 14 FEB 10  41:09:00:00     438    2.6      37   -0.2      211.9 -101.5   -0.9  146.3   -6.6    18.0
 14 FEB 10  41:10:00:00     443    2.7      34    0.5      211.8 -101.5   -0.9  146.3   -6.6    17.5
 14 FEB 10  41:11:00:00     442    2.4      35    1.0      211.8 -101.5   -0.8  146.3   -6.6    16.9
 14 FEB 10  41:12:00:00     428    2.1      38    1.5      211.7 -101.5   -0.8  146.3   -6.6    16.4
 14 FEB 10  41:13:00:00     439    2.0      40    0.9      211.7 -101.5   -0.8  146.3   -6.6    15.8
 14 FEB 10  41:14:00:00     442    2.4      41    0.8      211.6 -101.4   -0.7  146.3   -6.6    15.3
 14 FEB 10  41:15:00:00     453    3.0      34    1.2      211.6 -101.4   -0.7  146.3   -6.6    14.7
 14 FEB 10  41:16:00:00     454    3.1      36    1.1      211.5 -101.4   -0.7  146.3   -6.6    14.2
 14 FEB 10  41:17:00:00     460    5.1      34    0.2      211.5 -101.4   -0.7  146.3   -6.6    13.6
 14 FEB 10  41:18:00:00     485    4.8      46   -0.2      211.4 -101.4   -0.6  146.3   -6.6    13.1
 14 FEB 10  41:19:00:00     488    5.2      47   -0.6      211.4 -101.4   -0.6  146.3   -6.6    12.5
 14 FEB 10  41:20:00:00     498    4.3      43   -0.4      211.3 -101.3   -0.6  146.3   -6.6    12.0
 14 FEB 10  41:21:00:00     524    2.4      46   -2.4      211.3 -101.3   -0.6  146.3   -6.6    11.5
 14 FEB 10  41:22:00:00     553    1.5      47   -2.6      211.2 -101.3   -0.5  146.3   -6.6    10.9
 14 FEB 10  41:23:00:00     556    1.5      46   -1.3      211.2 -101.3   -0.5  146.3   -6.6    10.4
 14 FEB 11  42:00:00:00     525    2.6      43    0.3      211.1 -101.3   -0.5  146.3   -6.6     9.8
 14 FEB 11  42:01:00:00     463    5.3      35    2.5      211.2 -101.3   -0.5  146.3   -6.6     9.2
 14 FEB 11  42:02:00:00     464    5.7      36    3.8      211.1 -101.3   -0.4  146.3   -6.6     8.7
 14 FEB 11  42:03:00:00     471    6.6      37    5.9      211.1 -101.3   -0.4  146.3   -6.6     8.1
 14 FEB 11  42:04:00:00     468    6.3      42    5.0      211.0 -101.3   -0.4  146.3   -6.6     7.6
 14 FEB 11  42:05:00:00     460    7.0      43    4.6      211.0 -101.2   -0.4  146.3   -6.6     7.0
 14 FEB 11  42:06:00:00     452    7.1      41    4.0      210.9 -101.2   -0.3  146.3   -6.6     6.5
 14 FEB 11  42:07:00:00     447    8.2      42    5.4      210.9 -101.2   -0.3  146.3   -6.6     6.0
 14 FEB 11  42:08:00:00     450    6.9      41    5.0      210.8 -101.2   -0.3  146.3   -6.6     5.4
 14 FEB 11  42:09:00:00     444    8.1      41    7.3      210.8 -101.1   -0.3  146.3   -6.6     4.9
 14 FEB 11  42:10:00:00     445    8.7      41    8.2      210.7 -101.1   -0.2  146.3   -6.6     4.3
 14 FEB 11  42:11:00:00     441    5.6      40    6.5      210.7 -101.1   -0.2  146.3   -6.6     3.8
 14 FEB 11  42:12:00:00     433    5.9      39    7.0      210.6 -101.1   -0.2  146.3   -6.6     3.2
 14 FEB 11  42:13:00:00     411    4.8      34    5.7      210.6 -101.1   -0.2  146.3   -6.6     2.6
 14 FEB 11  42:14:00:00     396    4.3      29    4.7      210.5 -101.0   -0.1  146.3   -6.7     2.1
 14 FEB 11  42:15:00:00     385    4.9      26    3.9      210.5 -101.0   -0.1  146.3   -6.7     1.5
 14 FEB 11  42:16:00:00     379    8.0      24    3.6      210.4 -101.0   -0.1  146.3   -6.7     1.0